This is the latest recevied weather packets stored in our database for station/object BARLOW-WX. If no packets are shown the sender has not sent any weather packets the latest 10 day(s).
| Time | Temp. | Humidity | Pressure | Rain* | Wind** | Luminosity | Snow |
|---|---|---|---|---|---|---|---|
| 1776914185 | 15.56° C | 86% | 986.8 hPa | 0 mm | - | - | - |
| 1776913303 | 15.56° C | 86% | 986.8 hPa | 0 mm | - | - | - |
| 1776912379 | 15.56° C | 81% | 985.9 hPa | 0 mm | - | - | - |
| 1776911492 | 16.11° C | 83% | 986.2 hPa | 0 mm | - | - | - |
| 1776910578 | 16.11° C | 83% | 986.2 hPa | 0 mm | - | - | - |
| 1776909697 | 16.67° C | 83% | 986.2 hPa | 0 mm | - | - | - |
| 1776908783 | 16.67° C | 79% | 985.3 hPa | 0 mm | - | - | - |
| 1776907887 | 17.22° C | 79% | 985.3 hPa | 0 mm | - | - | - |
| 1776906989 | 17.22° C | 79% | 985.3 hPa | 0 mm | - | - | - |
| 1776906100 | 17.78° C | 79% | 985.3 hPa | 0 mm | - | - | - |
| 1776905177 | 18.33° C | 73% | 985.3 hPa | 0 mm | - | - | - |
| 1776904288 | 17.78° C | 71% | 986.3 hPa | 0 mm | - | - | - |
| 1776903382 | 18.89° C | 71% | 986.3 hPa | 0 mm | - | - | - |
| 1776902507 | 19.44° C | 71% | 986.3 hPa | 0 mm | - | - | - |
| 1776901585 | 20° C | 66% | 984.8 hPa | 0 mm | - | - | - |
| 1776900693 | 20.56° C | 66% | 984.8 hPa | 0 mm | - | - | - |
| 1776899784 | 20.56° C | 64% | 985.5 hPa | 0 mm | - | - | - |
| 1776898895 | 21.11° C | 64% | 985.5 hPa | 0 mm | - | - | - |
| 1776897985 | 21.11° C | 53% | 984.7 hPa | 0 mm | - | - | - |
| 1776897089 | 21.67° C | 54% | 985.8 hPa | 0 mm | - | - | - |
| 1776896184 | 22.78° C | 54% | 985.8 hPa | 0 mm | - | - | - |
| 1776895296 | 23.33° C | 54% | 985.8 hPa | 0 mm | - | - | - |
| 1776894381 | 23.33° C | 56% | 985.4 hPa | 0 mm | - | - | - |
| 1776893493 | 23.89° C | 56% | 986.1 hPa | 0 mm | - | - | - |
| 1776892584 | 23.33° C | 56% | 986.1 hPa | 0 mm | - | - | - |
* Rain latest hour (hover to see other rain measurements)
** Current wind speed in m/s (hover to see current wind gust speed)